Time;durP1;ratioP1;P1;durP2;ratioP2;P2;SDS_P1;SDS_P2;PMS_P1;PMS_P2;Temp;Humidity;BMP_temperature;BMP_pressure;BME280_temperature;BME280_humidity;BME280_pressure;Samples;Min_cycle;Max_cycle;Signal;HPM_P1;HPM_P2
2023/05/03 00:01:16;;;;;;;25.30;11.97;;;11.90;69.10;;;;;;5069415;28;20481;-64
2023/05/03 00:03:54;;;;;;;15.90;9.70;;;11.90;69.20;;;;;;5070210;28;20878;-65
2023/05/03 00:06:38;;;;;;;18.27;9.73;;;11.90;69.30;;;;;;5069445;28;20450;-64
2023/05/03 00:09:20;;;;;;;15.97;8.40;;;12.00;69.30;;;;;;5069678;28;20510;-64
2023/05/03 00:11:59;;;;;;;15.40;8.77;;;11.90;69.20;;;;;;5069044;28;20976;-64
2023/05/03 00:14:33;;;;;;;21.90;12.93;;;11.90;69.30;;;;;;5070825;28;20571;-64
2023/05/03 00:17:07;;;;;;;26.43;15.57;;;11.90;69.30;;;;;;5069156;28;20761;-64
2023/05/03 00:19:41;;;;;;;26.93;17.43;;;11.90;69.30;;;;;;5064114;28;20472;-64
2023/05/03 00:22:18;;;;;;;21.57;11.30;;;11.90;69.10;;;;;;5069825;28;20581;-64
2023/05/03 00:24:53;;;;;;;19.30;11.67;;;11.80;69.10;;;;;;5067590;28;20513;-64
2023/05/03 00:27:25;;;;;;;29.20;14.50;;;11.70;69.10;;;;;;5072272;28;20505;-64
2023/05/03 00:29:58;;;;;;;16.80;11.20;;;11.70;69.40;;;;;;5069231;28;20794;-65
2023/05/03 00:32:30;;;;;;;15.40;8.83;;;11.70;69.30;;;;;;5069433;28;20473;-64
2023/05/03 00:35:04;;;;;;;13.07;8.37;;;11.70;69.30;;;;;;5067481;28;20590;-64
2023/05/03 00:37:50;;;;;;;15.17;9.17;;;11.60;69.30;;;;;;5069971;28;20481;-64
2023/05/03 00:40:21;;;;;;;20.63;10.00;;;11.60;69.40;;;;;;5073102;28;20967;-64
2023/05/03 00:42:55;;;;;;;12.70;8.47;;;11.50;69.50;;;;;;5070342;28;20472;-64
2023/05/03 00:45:35;;;;;;;19.67;11.23;;;11.40;69.60;;;;;;5069871;28;20465;-64
2023/05/03 00:48:09;;;;;;;21.83;12.73;;;11.30;69.80;;;;;;5069230;28;20460;-65
2023/05/03 00:50:42;;;;;;;15.00;10.10;;;11.30;69.90;;;;;;5065563;28;20571;-64
2023/05/03 00:53:25;;;;;;;17.60;11.10;;;11.30;70.10;;;;;;5069701;28;20818;-64
2023/05/03 00:56:01;;;;;;;20.03;9.33;;;11.40;70.30;;;;;;5069732;28;20893;-64
2023/05/03 00:58:35;;;;;;;14.30;9.40;;;11.40;70.30;;;;;;5071283;28;20460;-65
2023/05/03 01:01:12;;;;;;;17.10;9.13;;;11.30;70.30;;;;;;5065426;28;20959;-64
2023/05/03 01:03:45;;;;;;;13.13;8.37;;;11.30;70.40;;;;;;5071876;28;20467;-65
2023/05/03 01:06:34;;;;;;;18.50;9.20;;;11.30;70.40;;;;;;5069271;28;20479;-65
2023/05/03 01:09:26;;;;;;;16.17;7.90;;;11.20;70.70;;;;;;5069220;28;20465;-64
2023/05/03 01:12:07;;;;;;;15.80;7.90;;;11.20;70.80;;;;;;5069704;28;21078;-64
2023/05/03 01:14:52;;;;;;;15.97;7.83;;;11.20;70.90;;;;;;5068798;28;20470;-64
2023/05/03 01:17:40;;;;;;;17.50;8.07;;;11.20;71.00;;;;;;5069161;28;20463;-65
2023/05/03 01:20:17;;;;;;;13.50;8.57;;;11.20;71.10;;;;;;5065066;28;20545;-64
2023/05/03 01:23:12;;;;;;;15.40;7.63;;;11.20;71.10;;;;;;5067898;28;21118;-64
2023/05/03 01:25:54;;;;;;;14.40;8.17;;;11.20;71.20;;;;;;5069474;28;20481;-65
2023/05/03 01:28:28;;;;;;;13.73;8.97;;;11.30;71.20;;;;;;5068888;28;20936;-64
2023/05/03 01:31:02;;;;;;;17.97;8.50;;;11.30;71.20;;;;;;5068266;28;20514;-64
2023/05/03 01:33:40;;;;;;;17.53;7.50;;;11.30;71.20;;;;;;5067386;28;20905;-64
2023/05/03 01:36:19;;;;;;;14.17;8.43;;;11.20;71.20;;;;;;5068444;28;20474;-64
2023/05/03 01:38:54;;;;;;;16.80;9.33;;;11.20;71.30;;;;;;5068958;28;20447;-64
2023/05/03 01:41:29;;;;;;;16.00;8.70;;;11.20;71.40;;;;;;5066019;28;20463;-64
2023/05/03 01:44:03;;;;;;;17.03;7.87;;;11.20;71.50;;;;;;5067056;28;20961;-64
2023/05/03 01:46:34;;;;;;;12.43;8.40;;;11.20;71.50;;;;;;5064214;28;20806;-64
2023/05/03 01:49:14;;;;;;;18.07;8.40;;;11.20;71.50;;;;;;5065367;28;20552;-64
2023/05/03 01:51:49;;;;;;;12.47;7.93;;;11.20;71.50;;;;;;5068438;28;20817;-64
2023/05/03 01:54:20;;;;;;;18.10;8.23;;;11.20;71.60;;;;;;5064656;28;20465;-64
2023/05/03 01:57:00;;;;;;;11.33;6.40;;;11.30;71.60;;;;;;5072851;28;20495;-64
2023/05/03 01:59:31;;;;;;;13.07;7.57;;;11.40;71.60;;;;;;5066565;28;21031;-64
2023/05/03 02:02:11;;;;;;;13.80;7.70;;;11.40;71.60;;;;;;5066342;28;21000;-64
2023/05/03 02:04:47;;;;;;;18.43;8.03;;;11.50;71.60;;;;;;5073066;28;20454;-65
2023/05/03 02:07:16;;;;;;;14.10;7.50;;;11.50;71.40;;;;;;5066009;28;20780;-65
2023/05/03 02:09:49;;;;;;;10.10;6.27;;;11.60;71.40;;;;;;5069554;28;20937;-64
2023/05/03 02:12:24;;;;;;;13.00;7.80;;;11.60;71.30;;;;;;5066105;28;20530;-64
2023/05/03 02:15:01;;;;;;;14.90;7.10;;;11.60;71.20;;;;;;5062785;28;20526;-64
2023/05/03 02:17:34;;;;;;;15.60;7.90;;;11.60;71.20;;;;;;5066190;28;20561;-64
2023/05/03 02:20:14;;;;;;;13.80;8.10;;;11.60;71.10;;;;;;5064864;28;21177;-64
2023/05/03 02:22:44;;;;;;;13.53;8.27;;;11.60;71.20;;;;;;5061113;28;20457;-64
2023/05/03 02:25:22;;;;;;;14.90;8.43;;;11.70;71.20;;;;;;5070264;28;20456;-64
2023/05/03 02:28:02;;;;;;;17.77;9.63;;;11.70;71.20;;;;;;5068930;28;20477;-64
2023/05/03 02:30:42;;;;;;;14.20;8.13;;;11.70;71.10;;;;;;5065205;28;20487;-64
2023/05/03 02:33:16;;;;;;;14.70;7.40;;;11.70;71.20;;;;;;5065909;28;20464;-64
2023/05/03 02:35:49;;;;;;;13.43;7.63;;;11.80;71.10;;;;;;5066960;28;20787;-64
2023/05/03 02:38:24;;;;;;;13.70;7.80;;;11.70;71.00;;;;;;5068627;28;20534;-64
2023/05/03 02:40:59;;;;;;;12.00;6.97;;;11.70;70.90;;;;;;5080244;28;20462;-64
2023/05/03 02:43:46;;;;;;;17.40;8.23;;;11.60;70.90;;;;;;5065942;28;20476;-64
2023/05/03 02:46:27;;;;;;;16.87;7.50;;;11.60;71.00;;;;;;5067625;28;20478;-65
2023/05/03 02:48:59;;;;;;;16.80;7.27;;;11.60;70.90;;;;;;5063805;28;20468;-64
2023/05/03 02:51:31;;;;;;;15.20;8.07;;;11.60;70.90;;;;;;5066112;28;20476;-64
2023/05/03 02:54:11;;;;;;;13.90;7.93;;;11.60;71.00;;;;;;5066737;28;20861;-64
2023/05/03 02:56:46;;;;;;;16.00;7.47;;;11.60;71.10;;;;;;5067704;28;20484;-65
2023/05/03 02:59:26;;;;;;;15.80;7.30;;;11.70;71.00;;;;;;5083911;28;20956;-65
2023/05/03 03:02:00;;;;;;;19.47;6.93;;;11.70;71.00;;;;;;5065657;28;20537;-64
2023/05/03 03:04:36;;;;;;;13.47;6.60;;;11.70;71.10;;;;;;5068803;28;21037;-64
2023/05/03 03:07:10;;;;;;;17.20;8.00;;;11.80;71.10;;;;;;5067203;28;20938;-65
2023/05/03 03:09:47;;;;;;;13.83;6.27;;;11.80;71.00;;;;;;5066251;28;20489;-65
2023/05/03 03:12:20;;;;;;;19.90;6.83;;;11.90;71.00;;;;;;5067612;28;20489;-64
2023/05/03 03:15:02;;;;;;;11.37;7.40;;;11.90;70.90;;;;;;5063364;28;20476;-64
2023/05/03 03:17:38;;;;;;;12.70;7.20;;;11.90;70.70;;;;;;5070055;28;20460;-64
2023/05/03 03:20:13;;;;;;;15.97;7.63;;;11.90;70.60;;;;;;5065141;28;20458;-64
2023/05/03 03:22:56;;;;;;;13.67;7.40;;;11.90;70.60;;;;;;5069782;28;20465;-64
2023/05/03 03:25:30;;;;;;;13.30;7.33;;;11.80;70.60;;;;;;5070565;28;20464;-64
2023/05/03 03:28:08;;;;;;;15.00;7.40;;;11.80;70.50;;;;;;5070921;28;20451;-65
2023/05/03 03:30:46;;;;;;;10.37;6.10;;;11.70;70.40;;;;;;5069473;28;20499;-64
2023/05/03 03:33:26;;;;;;;13.10;7.37;;;11.70;70.30;;;;;;5070795;28;20534;-65
2023/05/03 03:36:05;;;;;;;14.37;7.40;;;11.60;70.20;;;;;;5072408;28;20508;-64
2023/05/03 03:38:41;;;;;;;16.80;6.80;;;11.50;70.20;;;;;;5064605;28;20462;-64
2023/05/03 03:41:20;;;;;;;14.33;8.10;;;11.50;70.30;;;;;;5069659;28;20460;-64
2023/05/03 03:43:52;;;;;;;11.10;6.83;;;11.40;70.20;;;;;;5073592;28;20605;-65
2023/05/03 03:46:44;;;;;;;14.07;7.17;;;11.30;70.10;;;;;;5063765;28;20467;-64
2023/05/03 03:49:20;;;;;;;13.03;7.13;;;11.30;70.20;;;;;;5074625;28;20536;-65
2023/05/03 03:51:55;;;;;;;13.20;6.80;;;11.30;70.30;;;;;;5068997;28;20490;-64
2023/05/03 03:54:30;;;;;;;14.90;7.50;;;11.40;70.30;;;;;;5068440;28;20519;-65
2023/05/03 03:57:04;;;;;;;11.53;6.77;;;11.40;70.10;;;;;;5071875;28;20500;-64
2023/05/03 03:59:35;;;;;;;12.17;7.03;;;11.30;70.00;;;;;;5071916;28;20522;-64
2023/05/03 04:02:20;;;;;;;12.40;6.73;;;11.30;69.80;;;;;;5071096;28;20956;-64
2023/05/03 04:04:54;;;;;;;12.83;7.17;;;11.20;69.90;;;;;;5069028;28;20478;-65
2023/05/03 04:07:32;;;;;;;15.93;8.20;;;11.20;70.00;;;;;;5068912;28;20536;-65
2023/05/03 04:10:01;;;;;;;15.03;8.23;;;11.10;69.90;;;;;;5070654;28;20455;-65
2023/05/03 04:12:30;;;;;;;12.90;6.37;;;11.10;69.90;;;;;;5063838;28;20473;-64
2023/05/03 04:14:58;;;;;;;14.97;7.40;;;11.10;69.90;;;;;;5070094;28;20470;-65
2023/05/03 04:17:39;;;;;;;12.63;7.43;;;11.10;69.90;;;;;;5069031;28;20843;-64
2023/05/03 04:20:22;;;;;;;13.93;8.10;;;11.10;69.70;;;;;;5071312;28;20470;-64
2023/05/03 04:23:04;;;;;;;15.77;8.13;;;11.10;69.60;;;;;;5070192;28;20493;-65
2023/05/03 04:25:51;;;;;;;16.10;6.97;;;11.00;69.50;;;;;;5069611;28;20456;-65
2023/05/03 04:28:33;;;;;;;17.37;8.80;;;10.90;69.60;;;;;;5071035;28;20521;-64
2023/05/03 04:31:04;;;;;;;15.63;7.67;;;10.90;69.70;;;;;;5062164;28;20823;-65
2023/05/03 04:33:44;;;;;;;13.13;7.07;;;11.00;69.80;;;;;;5065154;28;20574;-64
2023/05/03 04:36:17;;;;;;;12.33;6.70;;;11.00;69.70;;;;;;5064136;28;20467;-64
2023/05/03 04:38:52;;;;;;;14.80;7.80;;;11.00;69.60;;;;;;5067609;28;21084;-64
2023/05/03 04:41:25;;;;;;;12.37;7.10;;;11.00;69.50;;;;;;5066034;28;20540;-65
2023/05/03 04:44:07;;;;;;;12.17;7.67;;;11.00;69.30;;;;;;5069643;28;20462;-65
2023/05/03 04:46:40;;;;;;;11.90;7.33;;;10.90;69.20;;;;;;5066805;28;20833;-66
2023/05/03 04:49:11;;;;;;;14.67;6.70;;;10.80;69.20;;;;;;5085994;28;20930;-65
2023/05/03 04:51:47;;;;;;;12.90;7.70;;;10.80;69.30;;;;;;5065020;28;20494;-64
2023/05/03 04:54:26;;;;;;;14.23;7.20;;;10.80;69.30;;;;;;5069904;28;21053;-65
2023/05/03 04:57:01;;;;;;;15.50;7.43;;;10.80;69.30;;;;;;5067180;28;20554;-65
2023/05/03 04:59:41;;;;;;;12.37;7.17;;;10.80;69.10;;;;;;5069001;28;20445;-65
2023/05/03 05:02:11;;;;;;;14.40;6.70;;;10.70;69.00;;;;;;5065591;28;20481;-66
2023/05/03 05:04:59;;;;;;;14.23;7.30;;;10.70;69.20;;;;;;5066031;28;20467;-66
2023/05/03 05:07:38;;;;;;;11.80;7.10;;;10.80;69.20;;;;;;5069581;28;20459;-65
2023/05/03 05:10:19;;;;;;;10.10;6.53;;;10.80;69.10;;;;;;5067533;28;20465;-66
2023/05/03 05:12:51;;;;;;;15.47;6.90;;;10.80;69.00;;;;;;5065219;28;21004;-65
2023/05/03 05:15:31;;;;;;;16.43;6.90;;;10.80;69.00;;;;;;5069049;28;20454;-65
2023/05/03 05:18:05;;;;;;;14.50;7.80;;;10.90;69.30;;;;;;5065200;28;20454;-65
2023/05/03 05:20:41;;;;;;;11.93;6.53;;;11.20;70.00;;;;;;5057921;28;20456;-65
2023/05/03 05:23:15;;;;;;;13.83;7.33;;;11.90;70.10;;;;;;5068019;28;20463;-65
2023/05/03 05:25:48;;;;;;;14.23;6.40;;;12.60;68.70;;;;;;5067846;28;20558;-65
2023/05/03 05:28:28;;;;;;;13.40;7.20;;;12.70;67.20;;;;;;5066377;28;20479;-65
2023/05/03 05:31:04;;;;;;;11.57;6.30;;;12.60;66.90;;;;;;5066247;28;20482;-65
2023/05/03 05:33:36;;;;;;;12.07;6.70;;;12.40;66.50;;;;;;5067665;28;20821;-65
2023/05/03 05:36:23;;;;;;;13.17;7.00;;;12.10;66.50;;;;;;5068582;28;20537;-65
2023/05/03 05:38:55;;;;;;;13.63;6.97;;;12.00;66.80;;;;;;5063301;28;20494;-65
2023/05/03 05:41:35;;;;;;;11.80;7.37;;;11.90;66.70;;;;;;5068163;28;20463;-65
2023/05/03 05:44:16;;;;;;;15.80;8.30;;;11.70;66.60;;;;;;5068313;28;20528;-65
2023/05/03 05:46:51;;;;;;;12.50;7.50;;;11.70;67.40;;;;;;5069484;28;20543;-66
2023/05/03 05:49:33;;;;;;;21.60;7.47;;;12.00;67.30;;;;;;5070433;28;21052;-65
2023/05/03 05:52:10;;;;;;;14.80;7.17;;;11.90;66.60;;;;;;5080802;28;20509;-65
2023/05/03 05:54:42;;;;;;;11.90;6.33;;;11.70;66.30;;;;;;5070705;28;20847;-65
2023/05/03 05:57:12;;;;;;;13.07;6.87;;;11.60;66.50;;;;;;5064624;28;20507;-65
2023/05/03 05:59:48;;;;;;;15.17;7.43;;;11.50;66.30;;;;;;5074816;28;20451;-65
2023/05/03 06:02:23;;;;;;;12.43;7.37;;;11.40;66.50;;;;;;5068784;28;20499;-65
2023/05/03 06:05:02;;;;;;;13.93;7.20;;;11.30;66.60;;;;;;5066073;28;20456;-65
2023/05/03 06:07:48;;;;;;;12.77;7.70;;;11.20;66.80;;;;;;5067259;28;20624;-65
2023/05/03 06:10:27;;;;;;;12.43;6.70;;;11.10;66.90;;;;;;5069700;28;20460;-65
2023/05/03 06:13:09;;;;;;;10.30;7.33;;;11.10;67.00;;;;;;5066422;28;20489;-65
2023/05/03 06:15:44;;;;;;;11.40;6.40;;;11.10;67.20;;;;;;5068554;28;20461;-65
2023/05/03 06:18:16;;;;;;;13.77;6.80;;;11.10;67.30;;;;;;5069220;28;20458;-65
2023/05/03 06:21:01;;;;;;;11.10;6.97;;;11.10;67.20;;;;;;5068769;28;20458;-65
2023/05/03 06:23:43;;;;;;;14.80;7.60;;;11.00;67.20;;;;;;5066810;28;20446;-65
2023/05/03 06:26:17;;;;;;;11.83;6.90;;;11.10;67.30;;;;;;5082013;28;20459;-65
2023/05/03 06:28:46;;;;;;;19.57;10.90;;;11.10;67.30;;;;;;5068049;28;20482;-65
2023/05/03 06:31:27;;;;;;;13.87;7.27;;;11.10;67.30;;;;;;5068816;28;20532;-65
2023/05/03 06:34:03;;;;;;;16.57;7.70;;;11.10;67.30;;;;;;5070272;28;20553;-65
2023/05/03 06:36:48;;;;;;;14.50;7.40;;;11.20;67.50;;;;;;5064955;28;20452;-65
2023/05/03 06:39:24;;;;;;;15.67;6.77;;;11.20;67.50;;;;;;5084510;28;20881;-65
2023/05/03 06:41:55;;;;;;;15.03;7.63;;;11.20;67.40;;;;;;5064001;28;20458;-66
2023/05/03 06:44:38;;;;;;;11.23;6.93;;;11.00;67.40;;;;;;5061711;28;20492;-65
2023/05/03 06:47:11;;;;;;;13.80;7.00;;;11.00;67.60;;;;;;5068207;28;20560;-65
2023/05/03 06:49:45;;;;;;;10.17;6.23;;;10.90;67.80;;;;;;5064466;28;20459;-65
2023/05/03 06:52:25;;;;;;;14.20;6.80;;;11.00;68.10;;;;;;5066155;28;20459;-70
2023/05/03 06:55:03;;;;;;;13.63;6.70;;;11.10;68.20;;;;;;5064212;28;20468;-65
2023/05/03 06:57:33;;;;;;;12.63;6.60;;;11.30;68.20;;;;;;5068079;28;20924;-65
2023/05/03 07:00:17;;;;;;;13.87;6.97;;;11.30;68.10;;;;;;5071651;28;20514;-66
2023/05/03 07:02:49;;;;;;;12.77;7.43;;;11.30;67.80;;;;;;5070360;28;20517;-65
2023/05/03 07:05:26;;;;;;;13.70;6.70;;;11.20;67.90;;;;;;5069664;28;20463;-65
2023/05/03 07:08:07;;;;;;;12.00;7.10;;;11.20;68.00;;;;;;5068692;28;20456;-65
2023/05/03 07:10:40;;;;;;;15.57;7.87;;;11.20;68.10;;;;;;5071377;28;20467;-65
2023/05/03 07:13:21;;;;;;;13.67;9.77;;;11.30;68.20;;;;;;5070584;28;20473;-65
2023/05/03 07:16:01;;;;;;;18.37;8.70;;;11.30;68.30;;;;;;5068808;28;20467;-65
2023/05/03 07:18:42;;;;;;;17.30;9.40;;;11.40;68.30;;;;;;5070701;28;20452;-65
2023/05/03 07:21:14;;;;;;;17.17;8.50;;;11.50;68.30;;;;;;5070689;28;20455;-65
2023/05/03 07:23:50;;;;;;;19.00;8.37;;;11.50;68.20;;;;;;5068277;28;21959;-65
2023/05/03 07:26:28;;;;;;;18.00;8.73;;;11.60;68.20;;;;;;5071421;28;20457;-65
2023/05/03 07:29:12;;;;;;;13.17;8.17;;;11.70;68.10;;;;;;5070479;28;20463;-65
2023/05/03 07:31:44;;;;;;;12.67;7.37;;;11.80;68.10;;;;;;5068971;28;20474;-67
2023/05/03 07:34:14;;;;;;;17.07;10.33;;;11.90;68.00;;;;;;5072131;28;20484;-65
2023/05/03 07:36:53;;;;;;;15.43;8.27;;;11.90;68.10;;;;;;5071149;28;20456;-65
2023/05/03 07:39:26;;;;;;;14.83;8.20;;;12.00;67.90;;;;;;5068193;28;20451;-65
2023/05/03 07:41:58;;;;;;;14.37;7.80;;;12.00;67.80;;;;;;5070964;28;20554;-65
2023/05/03 07:44:28;;;;;;;15.10;7.20;;;12.00;67.80;;;;;;5071181;28;20467;-65
2023/05/03 07:47:00;;;;;;;12.53;7.30;;;12.00;67.90;;;;;;5072250;28;20441;-65
2023/05/03 07:49:34;;;;;;;11.80;7.40;;;12.10;67.80;;;;;;5072045;28;20488;-65
2023/05/03 07:52:04;;;;;;;11.53;7.73;;;12.10;67.80;;;;;;5070197;28;20475;-66
2023/05/03 07:54:33;;;;;;;12.43;7.50;;;12.20;67.80;;;;;;5069143;28;20480;-65
2023/05/03 07:57:16;;;;;;;12.20;6.90;;;12.20;67.80;;;;;;5071177;28;20463;-65
2023/05/03 07:59:50;;;;;;;11.83;7.00;;;12.30;67.70;;;;;;5071323;28;20453;-66
2023/05/03 08:02:22;;;;;;;15.93;7.47;;;12.30;67.60;;;;;;5068489;28;20511;-65
2023/05/03 08:04:55;;;;;;;13.77;7.93;;;12.20;67.70;;;;;;5071250;28;20445;-65
2023/05/03 08:07:32;;;;;;;10.53;6.50;;;12.30;67.70;;;;;;5071247;28;20559;-65
2023/05/03 08:10:09;;;;;;;12.13;6.77;;;12.20;67.60;;;;;;5071457;28;20528;-65
2023/05/03 08:12:55;;;;;;;12.20;7.00;;;12.10;67.70;;;;;;5073288;28;21054;-65
2023/05/03 08:15:32;;;;;;;11.33;6.90;;;12.20;67.90;;;;;;5070857;28;20798;-65
2023/05/03 08:18:16;;;;;;;23.30;8.47;;;12.20;67.90;;;;;;5073174;28;20452;-65
2023/05/03 08:20:53;;;;;;;12.47;7.63;;;12.30;68.00;;;;;;5070782;28;20544;-65
2023/05/03 08:23:33;;;;;;;14.47;8.97;;;12.40;67.90;;;;;;5068795;28;20475;-65
2023/05/03 08:26:13;;;;;;;16.70;10.10;;;12.40;67.80;;;;;;5074482;28;20455;-65
2023/05/03 08:29:02;;;;;;;16.23;9.87;;;12.50;67.70;;;;;;5071945;28;20887;-65
2023/05/03 08:31:36;;;;;;;21.70;11.00;;;12.60;67.80;;;;;;5069312;28;20480;-65
2023/05/03 08:34:14;;;;;;;17.47;9.00;;;12.60;67.90;;;;;;5070463;28;21002;-65
2023/05/03 08:39:33;;;;;;;15.03;7.50;;;12.80;67.80;;;;;;5072909;28;20940;-66
2023/05/03 08:42:07;;;;;;;12.07;7.73;;;12.80;67.70;;;;;;5069654;28;20931;-66
2023/05/03 08:44:50;;;;;;;18.10;8.70;;;12.90;67.80;;;;;;5074644;28;20470;-66
2023/05/03 08:47:32;;;;;;;14.60;8.73;;;12.90;67.80;;;;;;5069047;28;20459;-65
2023/05/03 08:50:04;;;;;;;22.60;11.67;;;13.00;67.90;;;;;;5070227;28;20509;-66
2023/05/03 08:52:39;;;;;;;14.20;8.33;;;13.10;67.50;;;;;;5069844;28;20454;-66
2023/05/03 08:55:12;;;;;;;14.17;8.87;;;13.10;67.50;;;;;;5069821;28;21091;-65
2023/05/03 08:57:42;;;;;;;12.33;8.13;;;13.20;67.30;;;;;;5072011;28;20457;-65
2023/05/03 09:00:33;;;;;;;13.20;8.27;;;13.20;67.20;;;;;;5068308;28;20917;-65
2023/05/03 09:03:04;;;;;;;13.50;9.17;;;13.20;67.20;;;;;;5070073;28;20802;-65
2023/05/03 09:05:40;;;;;;;19.80;9.83;;;13.20;67.20;;;;;;5071278;28;20461;-65
2023/05/03 09:08:16;;;;;;;20.60;9.40;;;13.30;67.20;;;;;;5069607;28;20507;-66
2023/05/03 09:10:56;;;;;;;12.13;7.40;;;13.40;67.20;;;;;;5072410;28;20449;-65
2023/05/03 09:13:33;;;;;;;23.37;10.77;;;13.40;67.30;;;;;;5070425;28;20471;-65
2023/05/03 09:16:26;;;;;;;20.23;10.47;;;13.40;67.10;;;;;;5068504;28;20887;-65
2023/05/03 09:19:00;;;;;;;15.13;8.83;;;13.50;67.20;;;;;;5069997;28;20449;-65
2023/05/03 09:21:31;;;;;;;14.53;7.90;;;13.60;67.20;;;;;;5068209;28;20771;-65
2023/05/03 09:24:10;;;;;;;19.90;9.80;;;13.70;67.20;;;;;;5065577;28;20449;-65
2023/05/03 09:26:45;;;;;;;12.57;7.63;;;13.60;67.10;;;;;;5068670;28;20465;-65
2023/05/03 09:29:34;;;;;;;10.80;7.80;;;13.70;67.00;;;;;;5068210;28;20952;-65
2023/05/03 09:32:20;;;;;;;18.33;9.60;;;13.80;66.80;;;;;;5067330;28;20475;-65
2023/05/03 09:35:14;;;;;;;13.60;7.70;;;13.80;66.90;;;;;;5071877;28;20605;-65
2023/05/03 09:37:51;;;;;;;14.70;7.93;;;13.90;66.90;;;;;;5046082;28;20931;-66
2023/05/03 09:40:33;;;;;;;10.77;7.73;;;13.90;66.80;;;;;;5069034;28;20853;-65
2023/05/03 09:43:11;;;;;;;14.30;8.27;;;13.90;66.90;;;;;;5069384;28;20810;-65
2023/05/03 09:45:47;;;;;;;12.73;7.13;;;13.90;66.60;;;;;;5067941;28;20502;-66
2023/05/03 09:48:28;;;;;;;15.10;8.13;;;14.00;66.70;;;;;;5069150;28;20468;-65
2023/05/03 09:51:01;;;;;;;14.57;7.83;;;14.10;66.50;;;;;;5069609;28;20524;-65
2023/05/03 09:53:44;;;;;;;16.17;8.10;;;14.20;66.60;;;;;;5067224;28;20453;-65
2023/05/03 09:56:15;;;;;;;11.60;6.83;;;14.20;66.20;;;;;;5068670;28;20499;-66
2023/05/03 09:58:54;;;;;;;13.60;8.10;;;14.30;66.00;;;;;;5068981;28;20806;-65
2023/05/03 10:01:30;;;;;;;16.50;8.93;;;14.30;66.00;;;;;;5065851;28;20516;-65
2023/05/03 10:04:24;;;;;;;15.80;8.90;;;14.30;66.00;;;;;;5068788;28;20780;-65
2023/05/03 10:07:07;;;;;;;15.60;7.20;;;14.30;66.00;;;;;;5067218;28;20451;-66
2023/05/03 10:09:45;;;;;;;19.77;10.30;;;14.40;66.00;;;;;;5065787;28;20519;-66
2023/05/03 10:12:16;;;;;;;13.90;8.17;;;14.40;66.00;;;;;;5067943;28;20453;-65
2023/05/03 10:14:55;;;;;;;13.03;7.73;;;14.50;65.90;;;;;;5067482;28;20480;-66
2023/05/03 10:17:32;;;;;;;14.43;7.27;;;14.50;65.80;;;;;;5067039;28;20453;-66
2023/05/03 10:20:29;;;;;;;15.70;8.60;;;14.60;65.80;;;;;;5068776;28;20474;-66
2023/05/03 10:23:16;;;;;;;15.57;8.53;;;14.70;65.80;;;;;;5062057;28;20457;-65
2023/05/03 10:26:13;;;;;;;10.73;7.00;;;14.80;65.70;;;;;;5066228;28;20453;-65
2023/05/03 10:28:47;;;;;;;14.20;6.80;;;15.00;65.30;;;;;;5067802;28;20479;-66
2023/05/03 10:31:54;;;;;;;13.10;6.33;;;14.90;65.30;;;;;;5067735;28;20482;-66
2023/05/03 10:34:31;;;;;;;15.63;8.90;;;15.00;65.20;;;;;;5065252;28;20912;-65
2023/05/03 10:37:14;;;;;;;15.00;6.13;;;15.00;65.10;;;;;;5067707;28;20966;-65
2023/05/03 10:39:50;;;;;;;12.00;7.27;;;15.10;65.00;;;;;;5069722;28;20496;-66
2023/05/03 10:42:26;;;;;;;16.77;8.83;;;15.10;65.00;;;;;;5063163;28;20929;-66
2023/05/03 10:45:00;;;;;;;14.70;8.03;;;15.20;65.00;;;;;;5071024;28;20463;-65
2023/05/03 10:47:39;;;;;;;13.27;7.83;;;15.20;64.90;;;;;;5068078;28;20570;-66
2023/05/03 10:50:28;;;;;;;14.93;7.37;;;15.20;64.80;;;;;;5067504;28;20996;-66
2023/05/03 10:53:05;;;;;;;13.20;6.97;;;15.20;64.70;;;;;;5066512;28;20466;-66
2023/05/03 10:55:38;;;;;;;12.10;7.10;;;15.30;64.50;;;;;;5067653;28;20483;-65
2023/05/03 10:58:16;;;;;;;14.97;7.83;;;15.30;64.50;;;;;;5072448;28;20449;-65
2023/05/03 11:00:53;;;;;;;8.50;5.43;;;15.30;64.20;;;;;;5065950;28;20975;-66
2023/05/03 11:03:37;;;;;;;18.67;12.07;;;15.40;64.30;;;;;;5067696;28;20600;-66
2023/05/03 11:06:33;;;;;;;20.70;9.17;;;15.50;64.10;;;;;;5067189;28;20453;-66
2023/05/03 11:09:13;;;;;;;12.73;7.77;;;15.50;64.10;;;;;;5070744;28;20501;-66
2023/05/03 11:11:46;;;;;;;12.73;7.80;;;15.50;64.00;;;;;;5069196;28;20455;-65
2023/05/03 11:14:19;;;;;;;15.33;7.17;;;15.50;64.10;;;;;;5066560;28;20460;-65
2023/05/03 11:16:55;;;;;;;13.73;7.43;;;15.60;63.90;;;;;;5067326;28;20475;-65
2023/05/03 11:19:26;;;;;;;12.30;7.37;;;15.60;63.70;;;;;;5067783;28;20473;-66
2023/05/03 11:21:57;;;;;;;13.97;7.60;;;15.70;63.60;;;;;;5066446;28;20460;-66
2023/05/03 11:24:32;;;;;;;12.77;7.60;;;15.70;63.60;;;;;;5067233;28;20476;-66
2023/05/03 11:27:04;;;;;;;14.50;7.97;;;15.70;63.50;;;;;;5067972;28;20917;-67
2023/05/03 11:29:41;;;;;;;12.53;6.70;;;15.80;63.40;;;;;;5063724;28;20528;-67
2023/05/03 11:32:15;;;;;;;17.27;7.10;;;15.80;63.10;;;;;;5066372;28;20494;-66
2023/05/03 11:34:44;;;;;;;12.73;5.60;;;15.80;63.10;;;;;;5068509;28;20478;-67
2023/05/03 11:37:23;;;;;;;11.30;5.73;;;15.80;63.10;;;;;;5067458;28;20489;-66
2023/05/03 11:39:55;;;;;;;12.97;7.10;;;15.80;63.10;;;;;;5067783;28;20473;-66
2023/05/03 11:42:28;;;;;;;12.20;6.57;;;15.90;63.00;;;;;;5067040;28;20462;-66
2023/05/03 11:45:00;;;;;;;13.07;6.87;;;16.00;63.20;;;;;;5073936;28;21300;-66
2023/05/03 11:47:35;;;;;;;15.53;8.80;;;16.10;63.30;;;;;;5071708;28;20473;-66
2023/05/03 11:50:28;;;;;;;11.63;7.00;;;16.10;63.10;;;;;;5069868;28;20494;-67
2023/05/03 11:53:07;;;;;;;10.47;5.97;;;16.10;62.60;;;;;;5073868;28;20468;-67
2023/05/03 11:55:46;;;;;;;9.70;5.40;;;16.20;62.60;;;;;;5069466;28;21076;-66
2023/05/03 11:58:20;;;;;;;12.17;5.60;;;16.10;62.20;;;;;;5070245;28;20832;-66
2023/05/03 12:00:57;;;;;;;10.63;5.80;;;16.20;62.10;;;;;;5067451;28;20490;-66
2023/05/03 12:03:31;;;;;;;14.30;5.40;;;16.20;61.90;;;;;;5071441;28;20460;-66
2023/05/03 12:06:12;;;;;;;9.50;5.47;;;16.30;62.00;;;;;;5068789;28;20467;-66
2023/05/03 12:08:49;;;;;;;9.77;4.97;;;16.30;62.00;;;;;;5069992;28;20458;-66
2023/05/03 12:11:28;;;;;;;10.63;5.10;;;16.30;62.00;;;;;;5071865;28;20452;-66
2023/05/03 12:14:10;;;;;;;9.30;4.90;;;16.40;61.80;;;;;;5072159;28;20461;-66
2023/05/03 12:16:53;;;;;;;8.77;5.37;;;16.50;61.60;;;;;;5068802;28;20481;-67
2023/05/03 12:19:28;;;;;;;14.87;6.20;;;16.50;61.20;;;;;;5071517;28;20522;-66
2023/05/03 12:25:03;;;;;;;11.50;5.77;;;16.60;61.00;;;;;;5071185;28;20936;-66
2023/05/03 12:27:43;;;;;;;15.20;6.70;;;16.60;60.80;;;;;;5066357;28;21280;-66
2023/05/03 12:30:43;;;;;;;11.30;5.00;;;16.50;60.60;;;;;;5066510;28;20473;-66
2023/05/03 12:33:30;;;;;;;9.47;5.53;;;16.60;60.60;;;;;;5067674;28;20789;-66
2023/05/03 12:36:10;;;;;;;7.73;5.00;;;16.60;60.10;;;;;;5064845;28;21230;-66
2023/05/03 12:38:44;;;;;;;8.87;5.17;;;16.60;59.90;;;;;;5070651;28;20449;-66
2023/05/03 12:41:22;;;;;;;9.93;4.70;;;16.70;59.80;;;;;;5070269;28;20465;-66
2023/05/03 12:44:25;;;;;;;7.50;4.13;;;16.70;59.80;;;;;;5069189;28;20557;-66
2023/05/03 12:47:00;;;;;;;9.47;5.30;;;16.80;59.40;;;;;;5067412;28;20558;-66
2023/05/03 12:49:33;;;;;;;13.83;5.57;;;16.80;59.40;;;;;;5066022;28;20471;-67
2023/05/03 12:52:23;;;;;;;11.10;5.20;;;16.90;59.40;;;;;;5066223;28;20559;-66
2023/05/03 12:54:58;;;;;;;12.00;5.20;;;16.90;59.20;;;;;;5066380;28;20472;-66
2023/05/03 12:57:36;;;;;;;11.50;5.53;;;17.00;58.90;;;;;;5067099;28;20461;-66
2023/05/03 13:00:14;;;;;;;10.20;6.37;;;17.00;58.70;;;;;;5068681;28;20540;-66
2023/05/03 13:03:02;;;;;;;14.03;5.77;;;16.90;58.50;;;;;;5065620;28;20457;-66
2023/05/03 13:05:38;;;;;;;14.00;6.77;;;16.90;58.50;;;;;;5066182;28;20461;-66
2023/05/03 13:08:25;;;;;;;10.63;4.90;;;16.90;58.50;;;;;;5068945;28;20585;-66
2023/05/03 13:11:11;;;;;;;8.73;5.00;;;17.00;58.20;;;;;;5064629;28;20464;-67
2023/05/03 13:13:44;;;;;;;11.63;4.20;;;17.00;58.00;;;;;;5066323;28;20465;-66
2023/05/03 13:16:19;;;;;;;9.10;4.67;;;17.00;57.90;;;;;;5065901;28;20469;-66
2023/05/03 13:18:55;;;;;;;9.23;5.20;;;17.00;57.80;;;;;;5071751;28;20978;-67
2023/05/03 13:21:35;;;;;;;13.90;4.80;;;17.00;57.70;;;;;;5066207;28;20687;-67
2023/05/03 13:24:16;;;;;;;10.10;5.40;;;17.10;57.60;;;;;;5071271;28;20469;-66
2023/05/03 13:26:51;;;;;;;9.40;5.30;;;17.10;57.50;;;;;;5065449;28;20461;-66
2023/05/03 13:29:25;;;;;;;12.57;6.20;;;17.20;57.40;;;;;;5068674;28;20767;-66
2023/05/03 13:32:04;;;;;;;10.23;5.23;;;17.10;57.00;;;;;;5065340;28;20478;-67
2023/05/03 13:34:41;;;;;;;9.27;5.37;;;17.10;57.10;;;;;;5064078;28;20466;-66